createdAt,value
2023-03-05T00:00:32.112Z,508.00
2023-03-05T00:01:22.184Z,511.00
2023-03-05T00:02:12.272Z,510.00
2023-03-05T00:03:02.531Z,512.00
2023-03-05T00:03:52.673Z,515.00
2023-03-05T00:04:42.633Z,510.00
2023-03-05T00:05:32.662Z,505.00
2023-03-05T00:06:22.761Z,506.00
2023-03-05T00:07:12.808Z,506.00
2023-03-05T00:08:02.851Z,508.00
2023-03-05T00:08:52.878Z,509.00
2023-03-05T00:09:42.977Z,502.00
2023-03-05T00:10:33.007Z,502.00
2023-03-05T00:11:23.079Z,513.00
2023-03-05T00:12:13.328Z,504.00
2023-03-05T00:13:03.374Z,504.00
2023-03-05T00:13:53.400Z,510.00
2023-03-05T00:14:43.502Z,513.00
2023-03-05T00:15:33.530Z,510.00
2023-03-05T00:16:23.660Z,511.00
2023-03-05T00:17:13.678Z,506.00
2023-03-05T00:18:03.759Z,510.00
2023-03-05T00:18:53.798Z,511.00
2023-03-05T00:19:43.857Z,508.00
2023-03-05T00:20:33.878Z,515.00
2023-03-05T00:21:23.973Z,505.00
2023-03-05T00:22:13.989Z,503.00
2023-03-05T00:23:04.093Z,505.00
2023-03-05T00:23:54.118Z,510.00
2023-03-05T00:24:44.238Z,507.00
2023-03-05T00:25:34.235Z,510.00
2023-03-05T00:26:24.320Z,507.00
2023-03-05T00:27:14.349Z,510.00
2023-03-05T00:28:04.646Z,504.00
2023-03-05T00:28:54.679Z,510.00
2023-03-05T00:29:44.783Z,507.00
2023-03-05T00:30:34.822Z,505.00
2023-03-05T00:31:24.979Z,504.00
2023-03-05T00:32:14.951Z,500.00
2023-03-05T00:33:05.049Z,506.00
2023-03-05T00:33:55.079Z,508.00
2023-03-05T00:34:45.160Z,503.00
2023-03-05T00:35:36.052Z,500.00
2023-03-05T00:36:25.273Z,512.00
2023-03-05T00:37:15.289Z,510.00
2023-03-05T00:38:05.366Z,510.00
2023-03-05T00:38:55.427Z,510.00
2023-03-05T00:39:45.500Z,516.00
2023-03-05T00:40:35.578Z,508.00
2023-03-05T00:41:25.589Z,508.00
2023-03-05T00:42:15.624Z,514.00
2023-03-05T00:43:05.700Z,509.00
2023-03-05T00:43:55.738Z,506.00
2023-03-05T00:44:45.806Z,524.00
2023-03-05T00:45:35.825Z,511.00
2023-03-05T00:46:25.917Z,520.00
2023-03-05T00:47:15.927Z,511.00
2023-03-05T00:48:06.011Z,515.00
2023-03-05T00:48:56.062Z,514.00
2023-03-05T00:49:46.138Z,508.00
2023-03-05T00:50:36.441Z,512.00
2023-03-05T00:51:26.479Z,507.00
2023-03-05T00:52:16.514Z,509.00
2023-03-05T00:53:06.582Z,507.00
2023-03-05T00:53:56.609Z,512.00
2023-03-05T00:54:46.730Z,509.00
2023-03-05T00:55:36.741Z,510.00
2023-03-05T00:56:26.780Z,515.00
2023-03-05T00:57:16.819Z,510.00
2023-03-05T00:58:06.863Z,508.00
2023-03-05T00:58:56.893Z,501.00
2023-03-05T00:59:46.992Z,512.00
2023-03-05T01:00:37.022Z,509.00
2023-03-05T01:01:27.116Z,506.00
2023-03-05T01:02:17.148Z,500.00
2023-03-05T01:03:07.164Z,508.00
2023-03-05T01:03:57.197Z,513.00
2023-03-05T01:04:47.370Z,513.00
2023-03-05T01:05:37.402Z,515.00
2023-03-05T01:06:27.635Z,511.00
2023-03-05T01:07:17.670Z,509.00
2023-03-05T01:08:07.710Z,508.00
2023-03-05T01:08:57.745Z,507.00
2023-03-05T01:09:47.839Z,517.00
2023-03-05T01:10:37.903Z,507.00
2023-03-05T01:11:27.937Z,515.00
2023-03-05T01:12:17.961Z,516.00
2023-03-05T01:13:08.043Z,514.00
2023-03-05T01:13:58.079Z,514.00
2023-03-05T01:14:48.146Z,507.00
2023-03-05T01:15:38.173Z,512.00
2023-03-05T01:16:28.304Z,507.00
2023-03-05T01:17:18.313Z,512.00
2023-03-05T01:18:08.390Z,507.00
2023-03-05T01:18:58.414Z,504.00
2023-03-05T01:19:48.541Z,507.00
2023-03-05T01:20:38.544Z,506.00
2023-03-05T01:21:28.631Z,505.00
2023-03-05T01:22:18.914Z,510.00
2023-03-05T01:23:09.016Z,517.00
2023-03-05T01:23:59.030Z,508.00
2023-03-05T01:24:49.379Z,508.00
2023-03-05T01:25:39.415Z,511.00
2023-03-05T01:26:29.518Z,513.00
2023-03-05T01:27:19.543Z,501.00
2023-03-05T01:28:09.571Z,507.00
2023-03-05T01:28:59.614Z,506.00
2023-03-05T01:29:49.669Z,505.00
2023-03-05T01:30:39.701Z,506.00
2023-03-05T01:31:29.836Z,504.00
2023-03-05T01:32:19.848Z,512.00
2023-03-05T01:33:09.889Z,511.00
2023-03-05T01:33:59.924Z,511.00
2023-03-05T01:34:50.037Z,514.00
2023-03-05T01:35:40.142Z,510.00
2023-03-05T01:36:30.095Z,512.00
2023-03-05T01:37:20.129Z,505.00
2023-03-05T01:38:10.205Z,505.00
2023-03-05T01:39:00.245Z,508.00
2023-03-05T01:39:50.335Z,508.00
2023-03-05T01:40:40.621Z,506.00
2023-03-05T01:41:30.707Z,506.00
2023-03-05T01:42:20.755Z,515.00
2023-03-05T01:43:11.078Z,506.00
2023-03-05T01:44:01.128Z,506.00
2023-03-05T01:44:51.199Z,505.00
2023-03-05T01:45:41.277Z,512.00
2023-03-05T01:46:31.303Z,504.00
2023-03-05T01:47:21.370Z,511.00
2023-03-05T01:48:11.454Z,509.00
2023-03-05T01:49:01.498Z,504.00
2023-03-05T01:49:51.602Z,510.00
2023-03-05T01:50:41.625Z,506.00
2023-03-05T01:51:31.702Z,504.00
2023-03-05T01:52:21.992Z,512.00
2023-03-05T01:53:12.076Z,510.00
2023-03-05T01:54:02.115Z,505.00
2023-03-05T01:54:52.450Z,509.00
2023-03-05T01:55:42.475Z,508.00
2023-03-05T01:56:32.558Z,504.00
2023-03-05T01:57:22.615Z,510.00
2023-03-05T01:58:12.716Z,514.00
2023-03-05T01:59:02.730Z,503.00
2023-03-05T01:59:52.785Z,505.00
2023-03-05T02:00:42.835Z,503.00
2023-03-05T02:01:32.941Z,508.00
2023-03-05T02:02:22.928Z,499.00
2023-03-05T02:03:12.982Z,510.00
2023-03-05T02:04:03.386Z,510.00
2023-03-05T02:04:53.396Z,507.00
2023-03-05T02:05:43.411Z,512.00
2023-03-05T02:06:33.483Z,506.00
2023-03-05T02:07:23.507Z,512.00
2023-03-05T02:08:13.586Z,511.00
2023-03-05T02:09:03.612Z,509.00
2023-03-05T02:09:53.706Z,507.00
2023-03-05T02:10:43.728Z,509.00
2023-03-05T02:11:33.822Z,508.00
2023-03-05T02:12:23.847Z,511.00
2023-03-05T02:13:13.879Z,505.00
2023-03-05T02:14:03.970Z,512.00
2023-03-05T02:14:54.044Z,507.00
2023-03-05T02:15:44.079Z,513.00
2023-03-05T02:16:34.213Z,515.00
2023-03-05T02:17:24.219Z,510.00
2023-03-05T02:18:14.268Z,512.00
2023-03-05T02:19:04.292Z,506.00
2023-03-05T02:19:54.551Z,511.00
2023-03-05T02:20:44.601Z,507.00
2023-03-05T02:21:34.667Z,515.00
2023-03-05T02:22:24.706Z,510.00
2023-03-05T02:23:14.772Z,504.00
2023-03-05T02:24:04.803Z,510.00
2023-03-05T02:24:54.908Z,512.00
2023-03-05T02:25:44.946Z,508.00
2023-03-05T02:26:35.006Z,509.00
2023-03-05T02:27:25.032Z,505.00
2023-03-05T02:28:15.064Z,501.00
2023-03-05T02:29:05.395Z,511.00
2023-03-05T02:29:55.512Z,511.00
2023-03-05T02:30:45.527Z,506.00
2023-03-05T02:31:35.667Z,509.00
2023-03-05T02:32:25.691Z,507.00
2023-03-05T02:33:15.713Z,503.00
2023-03-05T02:34:05.742Z,515.00
2023-03-05T02:34:55.834Z,506.00
2023-03-05T02:35:45.878Z,507.00
2023-03-05T02:36:35.934Z,513.00
2023-03-05T02:37:25.974Z,513.00
2023-03-05T02:38:16.018Z,510.00
2023-03-05T02:39:06.050Z,508.00
2023-03-05T02:39:56.097Z,510.00
2023-03-05T02:40:46.164Z,513.00
2023-03-05T02:41:36.177Z,509.00
2023-03-05T02:42:26.252Z,505.00
2023-03-05T02:43:16.337Z,514.00
2023-03-05T02:44:06.368Z,511.00
2023-03-05T02:44:56.411Z,509.00
2023-03-05T02:45:46.542Z,516.00
2023-03-05T02:46:36.513Z,509.00
2023-03-05T02:47:26.549Z,509.00
2023-03-05T02:48:16.629Z,513.00
2023-03-05T02:49:06.658Z,516.00
2023-03-05T02:49:56.749Z,516.00
2023-03-05T02:50:46.779Z,512.00
2023-03-05T02:51:37.116Z,518.00
2023-03-05T02:52:27.182Z,512.00
2023-03-05T02:53:17.256Z,511.00
2023-03-05T02:54:07.554Z,509.00
2023-03-05T02:54:57.633Z,505.00
2023-03-05T02:55:47.674Z,519.00
2023-03-05T02:56:38.001Z,518.00
2023-03-05T02:57:28.078Z,513.00
2023-03-05T02:58:18.149Z,511.00
2023-03-05T02:59:08.440Z,511.00
2023-03-05T02:59:58.566Z,511.00
2023-03-05T03:00:48.596Z,516.00
2023-03-05T03:01:38.980Z,517.00
2023-03-05T03:02:28.958Z,511.00
2023-03-05T03:03:19.135Z,515.00
2023-03-05T03:04:09.093Z,514.00
2023-03-05T03:04:59.183Z,508.00
2023-03-05T03:05:49.212Z,507.00
2023-03-05T03:06:39.255Z,507.00
2023-03-05T03:07:29.289Z,505.00
2023-03-05T03:08:19.326Z,511.00
2023-03-05T03:09:09.418Z,506.00
2023-03-05T03:09:59.476Z,510.00
2023-03-05T03:10:49.511Z,509.00
2023-03-05T03:11:39.590Z,508.00
2023-03-05T03:12:29.628Z,504.00
2023-03-05T03:13:19.670Z,514.00
2023-03-05T03:14:09.695Z,506.00
2023-03-05T03:14:59.757Z,507.00
2023-03-05T03:15:49.791Z,505.00
2023-03-05T03:16:39.900Z,511.00
2023-03-05T03:17:29.896Z,505.00
2023-03-05T03:18:19.958Z,510.00
2023-03-05T03:19:10.030Z,504.00
2023-03-05T03:20:00.131Z,509.00
2023-03-05T03:20:50.167Z,511.00
2023-03-05T03:21:40.259Z,506.00
2023-03-05T03:22:30.333Z,504.00
2023-03-05T03:23:20.334Z,506.00
2023-03-05T03:24:10.576Z,503.00
2023-03-05T03:25:00.671Z,500.00
2023-03-05T03:25:50.696Z,513.00
2023-03-05T03:26:41.037Z,510.00
2023-03-05T03:27:31.114Z,513.00
2023-03-05T03:28:21.149Z,513.00
2023-03-05T03:29:11.185Z,508.00
2023-03-05T03:30:01.268Z,504.00
2023-03-05T03:30:51.331Z,503.00
2023-03-05T03:31:41.388Z,508.00
2023-03-05T03:32:31.467Z,504.00
2023-03-05T03:33:21.467Z,503.00
2023-03-05T03:34:11.499Z,512.00
2023-03-05T03:35:01.564Z,507.00
2023-03-05T03:35:51.600Z,502.00
2023-03-05T03:36:41.651Z,508.00
2023-03-05T03:37:31.684Z,505.00
2023-03-05T03:38:21.762Z,509.00
2023-03-05T03:39:11.805Z,506.00
2023-03-05T03:40:01.950Z,512.00
2023-03-05T03:40:51.970Z,511.00
2023-03-05T03:41:42.001Z,505.00
2023-03-05T03:42:32.072Z,505.00
2023-03-05T03:43:22.114Z,509.00
2023-03-05T03:44:12.145Z,507.00
2023-03-05T03:45:02.245Z,506.00
2023-03-05T03:45:52.255Z,502.00
2023-03-05T03:46:42.294Z,514.00
2023-03-05T03:47:32.359Z,513.00
2023-03-05T03:48:22.468Z,508.00
2023-03-05T03:49:12.723Z,506.00
2023-03-05T03:50:02.816Z,508.00
2023-03-05T03:50:52.839Z,518.00
2023-03-05T03:51:42.931Z,511.00
2023-03-05T03:52:32.959Z,503.00
2023-03-05T03:53:23.001Z,508.00
2023-03-05T03:54:13.038Z,505.00
2023-03-05T03:55:03.094Z,509.00
2023-03-05T03:55:53.166Z,505.00
2023-03-05T03:56:43.213Z,509.00
2023-03-05T03:57:33.242Z,505.00
2023-03-05T03:58:23.306Z,505.00
2023-03-05T03:59:13.360Z,502.00
2023-03-05T04:00:03.448Z,502.00
2023-03-05T04:00:53.477Z,504.00
2023-03-05T04:01:43.521Z,512.00
2023-03-05T04:02:33.596Z,509.00
2023-03-05T04:03:23.628Z,512.00
2023-03-05T04:04:13.803Z,512.00
2023-03-05T04:05:03.720Z,511.00
2023-03-05T04:05:53.758Z,517.00
2023-03-05T04:06:43.844Z,507.00
2023-03-05T04:07:33.905Z,514.00
2023-03-05T04:08:23.982Z,516.00
2023-03-05T04:09:14.012Z,512.00
2023-03-05T04:10:04.110Z,521.00
2023-03-05T04:10:54.137Z,512.00
2023-03-05T04:11:44.439Z,515.00
2023-03-05T04:12:34.480Z,512.00
2023-03-05T04:13:24.559Z,511.00
2023-03-05T04:14:14.578Z,519.00
2023-03-05T04:15:04.637Z,515.00
2023-03-05T04:15:54.772Z,520.00
2023-03-05T04:16:44.736Z,518.00
2023-03-05T04:17:34.780Z,509.00
2023-03-05T04:18:24.875Z,513.00
2023-03-05T04:19:14.887Z,513.00
2023-03-05T04:20:05.002Z,518.00
2023-03-05T04:20:55.016Z,515.00
2023-03-05T04:21:45.093Z,517.00
2023-03-05T04:22:35.120Z,516.00
2023-03-05T04:23:25.200Z,514.00
2023-03-05T04:24:15.231Z,506.00
2023-03-05T04:25:05.338Z,518.00
2023-03-05T04:25:55.360Z,509.00
2023-03-05T04:26:45.431Z,505.00
2023-03-05T04:27:35.469Z,521.00
2023-03-05T04:28:25.505Z,516.00
2023-03-05T04:29:15.568Z,514.00
2023-03-05T04:30:05.660Z,519.00
2023-03-05T04:30:55.756Z,515.00
2023-03-05T04:31:45.740Z,516.00
2023-03-05T04:32:35.850Z,511.00
2023-03-05T04:33:25.849Z,517.00
2023-03-05T04:34:15.876Z,520.00
2023-03-05T04:35:05.940Z,513.00
2023-03-05T04:35:56.015Z,517.00
2023-03-05T04:36:46.037Z,511.00
2023-03-05T04:37:36.075Z,510.00
2023-03-05T04:38:26.125Z,509.00
2023-03-05T04:39:16.144Z,511.00
2023-03-05T04:40:06.205Z,508.00
2023-03-05T04:40:56.238Z,520.00
2023-03-05T04:41:46.268Z,511.00
2023-03-05T04:42:36.302Z,513.00
2023-03-05T04:43:26.376Z,506.00
2023-03-05T04:44:16.402Z,517.00
2023-03-05T04:45:06.500Z,508.00
2023-03-05T04:45:56.527Z,505.00
2023-03-05T04:46:46.651Z,509.00
2023-03-05T04:47:36.648Z,507.00
2023-03-05T04:48:26.731Z,508.00
2023-03-05T04:49:16.763Z,511.00
2023-03-05T04:50:06.851Z,507.00
2023-03-05T04:50:56.882Z,509.00
2023-03-05T04:51:46.976Z,509.00
2023-03-05T04:52:37.023Z,504.00
2023-03-05T04:53:27.069Z,507.00
2023-03-05T04:54:17.107Z,512.00
2023-03-05T04:55:07.162Z,510.00
2023-03-05T04:55:57.193Z,512.00
2023-03-05T04:56:47.277Z,515.00
2023-03-05T04:57:37.305Z,508.00
2023-03-05T04:58:27.384Z,504.00
2023-03-05T04:59:17.414Z,512.00
2023-03-05T05:00:07.469Z,506.00
2023-03-05T05:00:57.497Z,505.00
2023-03-05T05:01:47.636Z,511.00
2023-03-05T05:02:37.687Z,506.00
2023-03-05T05:03:27.670Z,503.00
2023-03-05T05:04:17.744Z,507.00
2023-03-05T05:05:07.832Z,506.00
2023-03-05T05:05:57.854Z,502.00
2023-03-05T05:06:47.941Z,507.00
2023-03-05T05:07:38.254Z,505.00
2023-03-05T05:08:28.310Z,507.00
2023-03-05T05:09:18.341Z,510.00
2023-03-05T05:10:08.399Z,512.00
2023-03-05T05:10:58.427Z,508.00
2023-03-05T05:11:48.497Z,506.00
2023-03-05T05:12:38.576Z,507.00
2023-03-05T05:13:28.655Z,511.00
2023-03-05T05:14:18.701Z,510.00
2023-03-05T05:15:08.770Z,505.00
2023-03-05T05:15:58.834Z,503.00
2023-03-05T05:16:49.114Z,508.00
2023-03-05T05:17:39.146Z,510.00
2023-03-05T05:18:29.227Z,509.00
2023-03-05T05:19:19.615Z,505.00
2023-03-05T05:20:09.637Z,509.00
2023-03-05T05:20:59.679Z,511.00
2023-03-05T05:21:49.760Z,509.00
2023-03-05T05:22:39.784Z,510.00
2023-03-05T05:23:29.866Z,508.00
2023-03-05T05:24:19.916Z,515.00
2023-03-05T05:25:10.013Z,509.00
2023-03-05T05:26:00.103Z,503.00
2023-03-05T05:26:50.139Z,514.00
2023-03-05T05:27:40.187Z,512.00
2023-03-05T05:28:30.228Z,514.00
2023-03-05T05:29:20.263Z,515.00
2023-03-05T05:30:10.334Z,512.00
2023-03-05T05:31:00.371Z,512.00
2023-03-05T05:31:50.430Z,509.00
2023-03-05T05:32:40.540Z,510.00
2023-03-05T05:33:30.544Z,517.00
2023-03-05T05:34:20.573Z,510.00
2023-03-05T05:35:10.695Z,513.00
2023-03-05T05:36:00.778Z,512.00
2023-03-05T05:36:50.790Z,517.00
2023-03-05T05:37:40.822Z,513.00
2023-03-05T05:38:30.868Z,512.00
2023-03-05T05:39:20.965Z,517.00
2023-03-05T05:40:11.046Z,515.00
2023-03-05T05:41:01.069Z,506.00
2023-03-05T05:41:51.409Z,511.00
2023-03-05T05:42:41.448Z,513.00
2023-03-05T05:43:31.506Z,511.00
2023-03-05T05:44:21.538Z,516.00
2023-03-05T05:45:11.672Z,510.00
2023-03-05T05:46:01.806Z,513.00
2023-03-05T05:46:51.717Z,511.00
2023-03-05T05:47:41.758Z,511.00
2023-03-05T05:48:31.795Z,510.00
2023-03-05T05:49:21.831Z,516.00
2023-03-05T05:50:11.935Z,510.00
2023-03-05T05:51:01.973Z,508.00
2023-03-05T05:51:52.052Z,508.00
2023-03-05T05:52:42.082Z,506.00
2023-03-05T05:53:32.158Z,507.00
2023-03-05T05:54:22.188Z,507.00
2023-03-05T05:55:12.309Z,507.00
2023-03-05T05:56:02.308Z,502.00
2023-03-05T05:56:52.389Z,508.00
2023-03-05T05:57:42.681Z,505.00
2023-03-05T05:58:32.757Z,507.00
2023-03-05T05:59:22.796Z,513.00
2023-03-05T06:00:13.157Z,513.00
2023-03-05T06:01:03.177Z,516.00
2023-03-05T06:01:53.314Z,515.00
2023-03-05T06:02:43.390Z,508.00
2023-03-05T06:03:33.331Z,513.00
2023-03-05T06:04:23.400Z,510.00
2023-03-05T06:05:13.465Z,508.00
2023-03-05T06:06:03.493Z,513.00
2023-03-05T06:06:53.623Z,513.00
2023-03-05T06:07:43.688Z,509.00
2023-03-05T06:08:33.726Z,512.00
2023-03-05T06:09:23.760Z,515.00
2023-03-05T06:10:13.871Z,510.00
2023-03-05T06:11:03.873Z,513.00
2023-03-05T06:11:53.946Z,506.00
2023-03-05T06:12:43.982Z,517.00
2023-03-05T06:13:34.035Z,512.00
2023-03-05T06:14:24.096Z,511.00
2023-03-05T06:15:14.124Z,512.00
2023-03-05T06:16:04.320Z,512.00
2023-03-05T06:16:54.269Z,519.00
2023-03-05T06:17:44.283Z,513.00
2023-03-05T06:18:34.364Z,517.00
2023-03-05T06:19:24.403Z,506.00
2023-03-05T06:20:14.586Z,510.00
2023-03-05T06:21:04.633Z,509.00
2023-03-05T06:21:54.666Z,511.00
2023-03-05T06:22:44.706Z,503.00
2023-03-05T06:23:34.754Z,515.00
2023-03-05T06:24:24.789Z,511.00
2023-03-05T06:25:14.850Z,511.00
2023-03-05T06:26:04.909Z,510.00
2023-03-05T06:26:54.979Z,512.00
2023-03-05T06:27:45.010Z,507.00
2023-03-05T06:28:35.050Z,510.00
2023-03-05T06:29:25.086Z,508.00
2023-03-05T06:30:15.154Z,505.00
2023-03-05T06:31:05.263Z,501.00
2023-03-05T06:31:55.236Z,510.00
2023-03-05T06:32:45.272Z,502.00
2023-03-05T06:33:35.362Z,509.00
2023-03-05T06:34:25.401Z,511.00
2023-03-05T06:35:15.475Z,507.00
2023-03-05T06:36:05.507Z,504.00
2023-03-05T06:36:55.558Z,508.00
2023-03-05T06:37:45.594Z,506.00
2023-03-05T06:38:35.633Z,509.00
2023-03-05T06:39:25.669Z,512.00
2023-03-05T06:40:15.797Z,510.00
2023-03-05T06:41:05.813Z,513.00
2023-03-05T06:41:55.910Z,514.00
2023-03-05T06:42:45.918Z,510.00
2023-03-05T06:43:36.007Z,516.00
2023-03-05T06:44:26.032Z,511.00
2023-03-05T06:45:16.093Z,514.00
2023-03-05T06:46:06.199Z,511.00
2023-03-05T06:46:56.224Z,507.00
2023-03-05T06:47:46.234Z,508.00
2023-03-05T06:48:36.320Z,515.00
2023-03-05T06:49:26.360Z,517.00
2023-03-05T06:50:16.410Z,504.00
2023-03-05T06:51:06.438Z,515.00
2023-03-05T06:51:56.535Z,507.00
2023-03-05T06:52:46.551Z,509.00
2023-03-05T06:53:36.628Z,514.00
2023-03-05T06:54:26.678Z,512.00
2023-03-05T06:55:16.742Z,514.00
2023-03-05T06:56:06.757Z,515.00
2023-03-05T06:56:56.836Z,512.00
2023-03-05T06:57:46.900Z,511.00
2023-03-05T06:58:36.920Z,513.00
2023-03-05T06:59:26.946Z,507.00
2023-03-05T07:00:17.017Z,513.00
2023-03-05T07:01:07.069Z,510.00
2023-03-05T07:01:57.096Z,514.00
2023-03-05T07:02:47.207Z,510.00
2023-03-05T07:03:37.195Z,507.00
2023-03-05T07:04:27.216Z,513.00
2023-03-05T07:05:17.320Z,515.00
2023-03-05T07:06:07.361Z,514.00
2023-03-05T07:06:57.426Z,512.00
2023-03-05T07:07:47.458Z,516.00
2023-03-05T07:08:37.492Z,513.00
2023-03-05T07:09:27.527Z,516.00
2023-03-05T07:10:17.627Z,514.00
2023-03-05T07:11:07.669Z,513.00
2023-03-05T07:11:57.720Z,516.00
2023-03-05T07:12:47.745Z,516.00
2023-03-05T07:13:37.828Z,510.00
2023-03-05T07:14:27.834Z,511.00
2023-03-05T07:15:17.903Z,514.00
2023-03-05T07:16:08.020Z,508.00
2023-03-05T07:16:57.976Z,519.00
2023-03-05T07:17:48.016Z,518.00
2023-03-05T07:18:38.099Z,511.00
2023-03-05T07:19:28.125Z,505.00
2023-03-05T07:20:18.266Z,508.00
2023-03-05T07:21:08.299Z,515.00
2023-03-05T07:21:58.370Z,511.00
2023-03-05T07:22:48.397Z,509.00
2023-03-05T07:23:38.485Z,510.00
2023-03-05T07:24:28.517Z,509.00
2023-03-05T07:25:18.574Z,510.00
2023-03-05T07:26:08.624Z,514.00
2023-03-05T07:26:58.662Z,511.00
2023-03-05T07:27:48.676Z,509.00
2023-03-05T07:28:38.757Z,510.00
2023-03-05T07:29:28.815Z,501.00
2023-03-05T07:30:18.844Z,508.00
2023-03-05T07:31:08.953Z,507.00
2023-03-05T07:31:58.982Z,508.00
2023-03-05T07:32:48.981Z,504.00
2023-03-05T07:33:39.064Z,506.00
2023-03-05T07:34:29.114Z,501.00
2023-03-05T07:35:19.224Z,503.00
2023-03-05T07:36:09.191Z,507.00
2023-03-05T07:36:59.272Z,514.00
2023-03-05T07:37:49.326Z,504.00
2023-03-05T07:38:39.371Z,508.00
2023-03-05T07:39:29.390Z,509.00
2023-03-05T07:40:19.484Z,510.00
2023-03-05T07:41:09.520Z,502.00
2023-03-05T07:41:59.593Z,506.00
2023-03-05T07:42:49.889Z,510.00
2023-03-05T07:43:39.928Z,511.00
2023-03-05T07:44:29.968Z,509.00
2023-03-05T07:45:20.194Z,508.00
2023-03-05T07:46:10.149Z,519.00
2023-03-05T07:47:00.173Z,517.00
2023-03-05T07:47:52.494Z,515.00
2023-03-05T07:48:40.272Z,506.00
2023-03-05T07:49:30.334Z,513.00
2023-03-05T07:50:20.483Z,508.00
2023-03-05T07:51:10.519Z,512.00
2023-03-05T07:52:00.585Z,508.00
2023-03-05T07:52:50.912Z,506.00
2023-03-05T07:53:40.990Z,508.00
2023-03-05T07:54:31.056Z,506.00
2023-03-05T07:55:21.127Z,509.00
2023-03-05T07:56:11.169Z,514.00
2023-03-05T07:57:01.216Z,514.00
2023-03-05T07:57:51.238Z,513.00
2023-03-05T07:58:41.324Z,515.00
2023-03-05T07:59:31.355Z,509.00
2023-03-05T08:00:21.478Z,506.00
2023-03-05T08:01:13.309Z,514.00
2023-03-05T08:02:01.527Z,520.00
2023-03-05T08:02:51.658Z,517.00
2023-03-05T08:03:41.794Z,514.00
2023-03-05T08:04:31.754Z,515.00
2023-03-05T08:05:21.783Z,524.00
2023-03-05T08:06:11.856Z,519.00
2023-03-05T08:07:01.935Z,514.00
2023-03-05T08:07:51.974Z,514.00
2023-03-05T08:08:42.013Z,521.00
2023-03-05T08:09:32.053Z,513.00
2023-03-05T08:10:22.112Z,512.00
2023-03-05T08:11:12.144Z,512.00
2023-03-05T08:12:02.178Z,511.00
2023-03-05T08:12:52.250Z,518.00
2023-03-05T08:13:42.287Z,513.00
2023-03-05T08:14:32.328Z,514.00
2023-03-05T08:15:22.392Z,521.00
2023-03-05T08:16:12.537Z,522.00
2023-03-05T08:17:02.515Z,511.00
2023-03-05T08:17:52.551Z,514.00
2023-03-05T08:18:42.599Z,514.00
2023-03-05T08:19:32.671Z,512.00
2023-03-05T08:20:22.745Z,514.00
2023-03-05T08:21:12.777Z,509.00
2023-03-05T08:22:02.880Z,514.00
2023-03-05T08:22:52.893Z,508.00
2023-03-05T08:23:42.941Z,510.00
2023-03-05T08:24:32.970Z,510.00
2023-03-05T08:25:23.072Z,513.00
2023-03-05T08:26:13.101Z,515.00
2023-03-05T08:27:03.178Z,512.00
2023-03-05T08:27:53.210Z,512.00
2023-03-05T08:28:43.546Z,515.00
2023-03-05T08:29:33.583Z,509.00
2023-03-05T08:30:23.638Z,515.00
2023-03-05T08:31:13.695Z,510.00
2023-03-05T08:32:03.824Z,514.00
2023-03-05T08:32:53.800Z,516.00
2023-03-05T08:33:43.831Z,522.00
2023-03-05T08:34:33.865Z,516.00
2023-03-05T08:35:24.006Z,522.00
2023-03-05T08:36:14.008Z,530.00
2023-03-05T08:37:04.058Z,529.00
2023-03-05T08:37:54.091Z,533.00
2023-03-05T08:38:44.137Z,526.00
2023-03-05T08:39:34.169Z,531.00
2023-03-05T08:40:24.333Z,529.00
2023-03-05T08:41:14.269Z,538.00
2023-03-05T08:42:04.338Z,537.00
2023-03-05T08:42:54.367Z,531.00
2023-03-05T08:43:44.448Z,534.00
2023-03-05T08:44:34.486Z,538.00
2023-03-05T08:45:24.548Z,530.00
2023-03-05T08:46:14.611Z,530.00
2023-03-05T08:47:04.643Z,524.00
2023-03-05T08:47:54.691Z,526.00
2023-03-05T08:48:44.773Z,524.00
2023-03-05T08:49:34.793Z,522.00
2023-03-05T08:50:24.852Z,525.00
2023-03-05T08:51:14.901Z,527.00
2023-03-05T08:52:04.931Z,519.00
2023-03-05T08:52:54.958Z,512.00
2023-03-05T08:53:44.999Z,528.00
2023-03-05T08:54:35.037Z,523.00
2023-03-05T08:55:25.136Z,526.00
2023-03-05T08:56:15.180Z,519.00
2023-03-05T08:57:05.224Z,515.00
2023-03-05T08:57:55.254Z,525.00
2023-03-05T08:58:45.300Z,527.00
2023-03-05T08:59:35.335Z,528.00
2023-03-05T09:00:25.425Z,533.00
2023-03-05T09:01:15.443Z,532.00
2023-03-05T09:02:05.607Z,528.00
2023-03-05T09:02:55.678Z,531.00
2023-03-05T09:03:45.674Z,539.00
2023-03-05T09:04:35.682Z,530.00
2023-03-05T09:05:25.760Z,526.00
2023-03-05T09:06:15.760Z,527.00
2023-03-05T09:07:05.856Z,530.00
2023-03-05T09:07:55.864Z,532.00
2023-03-05T09:08:45.952Z,534.00
2023-03-05T09:09:36.001Z,530.00
2023-03-05T09:10:26.101Z,538.00
2023-03-05T09:11:16.345Z,533.00
2023-03-05T09:12:06.419Z,538.00
2023-03-05T09:12:56.458Z,534.00
2023-03-05T09:13:46.507Z,540.00
2023-03-05T09:14:36.535Z,543.00
2023-03-05T09:15:26.662Z,543.00
2023-03-05T09:16:16.698Z,531.00
2023-03-05T09:17:06.734Z,528.00
2023-03-05T09:17:56.772Z,529.00
2023-03-05T09:18:46.869Z,528.00
2023-03-05T09:19:36.901Z,526.00
2023-03-05T09:20:27.199Z,540.00
2023-03-05T09:21:17.238Z,532.00
2023-03-05T09:22:07.277Z,540.00
2023-03-05T09:22:57.336Z,534.00
2023-03-05T09:23:47.441Z,523.00
2023-03-05T09:24:37.422Z,529.00
2023-03-05T09:25:27.505Z,518.00
2023-03-05T09:26:17.538Z,519.00
2023-03-05T09:27:07.589Z,524.00
2023-03-05T09:27:57.626Z,519.00
2023-03-05T09:28:47.663Z,527.00
2023-03-05T09:29:37.693Z,528.00
2023-03-05T09:30:27.773Z,534.00
2023-03-05T09:31:17.909Z,529.00
2023-03-05T09:32:08.059Z,523.00
2023-03-05T09:32:57.947Z,527.00
2023-03-05T09:33:47.982Z,521.00
2023-03-05T09:34:38.011Z,528.00
2023-03-05T09:35:28.131Z,530.00
2023-03-05T09:36:18.149Z,528.00
2023-03-05T09:37:08.190Z,533.00
2023-03-05T09:37:58.215Z,539.00
2023-03-05T09:38:48.269Z,532.00
2023-03-05T09:39:38.316Z,527.00
2023-03-05T09:40:28.387Z,526.00
2023-03-05T09:41:18.435Z,525.00
2023-03-05T09:42:10.224Z,517.00
2023-03-05T09:42:58.544Z,523.00
2023-03-05T09:43:48.639Z,533.00
2023-03-05T09:44:38.662Z,535.00
2023-03-05T09:45:28.762Z,537.00
2023-03-05T09:46:18.784Z,536.00
2023-03-05T09:47:08.811Z,539.00
2023-03-05T09:47:58.843Z,528.00
2023-03-05T09:48:48.888Z,523.00
2023-03-05T09:49:38.927Z,527.00
2023-03-05T09:50:28.964Z,527.00
2023-03-05T09:51:19.034Z,518.00
2023-03-05T09:52:09.047Z,518.00
2023-03-05T09:52:59.087Z,508.00
2023-03-05T09:53:49.168Z,505.00
2023-03-05T09:54:39.208Z,507.00
2023-03-05T09:55:29.244Z,517.00
2023-03-05T09:56:19.305Z,542.00
2023-03-05T09:57:09.335Z,553.00
2023-03-05T09:57:59.370Z,560.00
2023-03-05T09:58:49.449Z,579.00
2023-03-05T09:59:39.485Z,597.00
2023-03-05T10:00:29.567Z,603.00
2023-03-05T10:01:19.625Z,610.00
2023-03-05T10:02:09.680Z,626.00
2023-03-05T10:02:59.760Z,636.00
2023-03-05T10:03:49.800Z,629.00
2023-03-05T10:04:39.826Z,647.00
2023-03-05T10:05:29.865Z,648.00
2023-03-05T10:06:19.913Z,655.00
2023-03-05T10:07:10.013Z,662.00
2023-03-05T10:08:00.067Z,672.00
2023-03-05T10:08:50.159Z,664.00
2023-03-05T10:09:40.436Z,661.00
2023-03-05T10:10:30.485Z,652.00
2023-03-05T10:11:20.533Z,656.00
2023-03-05T10:12:10.571Z,649.00
2023-03-05T10:13:00.609Z,638.00
2023-03-05T10:13:50.653Z,632.00
2023-03-05T10:14:40.687Z,634.00
2023-03-05T10:15:32.021Z,624.00
2023-03-05T10:16:20.898Z,633.00
2023-03-05T10:17:10.853Z,636.00
2023-03-05T10:18:00.896Z,858.00
2023-03-05T10:18:50.928Z,909.00
2023-03-05T10:19:40.969Z,951.00
2023-03-05T10:20:31.019Z,950.00
2023-03-05T10:21:21.063Z,1261.00
2023-03-05T10:22:11.150Z,1325.00
2023-03-05T10:23:01.224Z,1386.00
2023-03-05T10:23:51.231Z,1350.00
2023-03-05T10:24:41.276Z,1267.00